Air Resources Laboratory banner image
Air Resources Laboratory web site National Oceanic and Atmospheric Administration (NOAA)

me metar


K40B 121316Z AUTO VRB05KT M15/M17 A2991 RMK AO1 SLP179 T11501170 58014=
K8B0 121255Z AUTO 11003KT 4SM -SN BKN018 OVC026 M13/M15 A2978 RMK AO2=
KAUG 121253Z AUTO 01010KT 2 1/2SM -SN BR FEW018 BKN028 OVC038 M10/M12 A2991 RMK
 AO2 SLP137 P0000 T11001122=
KBGR 121253Z 02007KT 5SM -SN OVC037 M09/M12 A2997 RMK AO2 SNB05 SLP154 P0000
 T10941122=
KBHB 121256Z AUTO 01005KT 1 1/4SM -SN BR BKN025 OVC034 M07/M09 A2995 RMK AO2
 SLP147 T10721089 FZRANO PNO $=
KCAR 121254Z AUTO 00000KT 10SM OVC100 M17/M20 A3003 RMK AO2 SLP188 T11721200=
KFVE 121253Z AUTO 12005KT 10SM SCT120 M18/M21 A2999 RMK AO2 SLP180 T11831206=
KGNR 121256Z AUTO 11010KT M13/M17 A2983 RMK AO1 SLP134 T11281167=
KHUL 121253Z AUTO 01003KT 10SM BKN075 OVC095 M17/M18 A3001 RMK AO2 SLP178
 T11671183=
KIWI 121253Z AUTO VRB04KT 2 1/2SM -SN BR FEW016 OVC031 M07/M09 A2993 RMK AO2
 SNB13 SLP136 P0000 T10721089=
KIZG 121254Z AUTO 01005KT 1SM -SN BR BKN013 OVC024 M08/M09 A2988 RMK AO2 SLP126
 P0001 T10831094=
KLEW 121256Z AUTO 02007KT 1 1/4SM -SN BR BKN017 OVC028 M09/M11 A2991 RMK AO2
 SLP143 P0000 T10891111 FZRANO=
KMLT 121253Z AUTO 05006KT 10SM OVC050 M13/M15 A3001 RMK AO2 SLP177 T11281150
 TSNO=
KPQI 121256Z AUTO 00000KT 10SM SCT100 M19/M22 A3004 RMK AO2 SLP222 T11941217
 FZRANO=
KPWM 121251Z 06007KT 010V080 1 1/2SM -SN BR BKN018 OVC025 M07/M08 A2990 RMK AO2
 SLP127 P0003 T10671083=
KRKD 121308Z AUTO 04011KT 2 1/2SM -SN BR BKN010 BKN018 OVC040 M04/M06 A2988 RMK
 AO2 CIG 007V014 PRESFR P0000 FZRANO=
KSFM 121256Z AUTO 04011KT 1SM -SN BR OVC012 M06/M08 A2985 RMK AO2 SLP117 P0002
 T10611078 FZRANO RVRNO=
KWVL 121256Z AUTO 04008KT 3SM -SN BR OVC023 M11/M12 A2989 RMK AO2 SLP157 P0000
 T11061122 FZRANO=